Time;durP1;ratioP1;P1;durP2;ratioP2;P2;SDS_P1;SDS_P2;PMS_P1;PMS_P2;Temp;Humidity;BMP_temperature;BMP_pressure;BME280_temperature;BME280_humidity;BME280_pressure;Samples;Min_cycle;Max_cycle;Signal;HPM_P1;HPM_P2
2022/12/18 00:00:47;;;;;;;10.32;7.72;;;;;;;;;;5133687;27;20538;-86
2022/12/18 00:03:17;;;;;;;12.18;8.55;;;;;;;;;;5115395;28;20079;-83
2022/12/18 00:05:47;;;;;;;11.35;8.13;;;;;;;;;;5133738;27;20046;-83
2022/12/18 00:08:13;;;;;;;11.23;7.97;;;;;;;;;;5133370;27;20030;-82
2022/12/18 00:10:39;;;;;;;8.10;7.20;;;;;;;;;;5133588;27;20470;-82
2022/12/18 00:13:05;;;;;;;10.15;7.55;;;;;;;;;;5115333;28;20019;-82
2022/12/18 00:15:33;;;;;;;9.32;8.07;;;;;;;;;;5133354;28;20059;-83
2022/12/18 00:17:59;;;;;;;11.43;8.15;;;;;;;;;;5133704;28;20523;-82
2022/12/18 00:20:25;;;;;;;11.23;8.73;;;;;;;;;;5133524;28;20018;-83
2022/12/18 00:22:52;;;;;;;12.05;7.88;;;;;;;;;;5115020;28;20027;-81
2022/12/18 00:25:18;;;;;;;10.15;7.68;;;;;;;;;;5133450;28;20470;-83
2022/12/18 00:27:44;;;;;;;9.55;7.85;;;;;;;;;;5115130;28;20470;-80
2022/12/18 00:30:11;;;;;;;13.43;8.43;;;;;;;;;;5133439;28;20411;-84
2022/12/18 00:32:37;;;;;;;10.75;8.20;;;;;;;;;;5133453;28;20019;-83
2022/12/18 00:35:04;;;;;;;10.77;7.68;;;;;;;;;;5133471;28;20367;-80
2022/12/18 00:37:30;;;;;;;10.52;8.60;;;;;;;;;;5115053;28;20035;-82
2022/12/18 00:39:56;;;;;;;11.18;8.20;;;;;;;;;;5133370;28;20482;-81
2022/12/18 00:45:07;;;;;;;8.98;7.25;;;;;;;;;;5133623;28;20042;-82
2022/12/18 00:47:33;;;;;;;10.13;7.10;;;;;;;;;;5114649;28;20442;-79
2022/12/18 00:49:59;;;;;;;12.27;8.43;;;;;;;;;;5133213;28;20031;-82
2022/12/18 00:52:25;;;;;;;11.85;7.60;;;;;;;;;;5133481;28;20130;-81
2022/12/18 00:54:51;;;;;;;10.15;7.18;;;;;;;;;;5114885;28;20057;-83
2022/12/18 00:57:17;;;;;;;8.43;6.47;;;;;;;;;;5133042;28;20441;-82
2022/12/18 00:59:43;;;;;;;11.02;6.93;;;;;;;;;;5133104;28;20020;-82
2022/12/18 01:02:09;;;;;;;8.77;6.55;;;;;;;;;;5115009;28;20030;-85
2022/12/18 01:04:35;;;;;;;9.45;6.45;;;;;;;;;;5114710;28;20023;-83
2022/12/18 01:07:01;;;;;;;9.95;6.65;;;;;;;;;;5133245;28;20031;-83
2022/12/18 01:09:27;;;;;;;7.50;5.70;;;;;;;;;;5133144;28;20072;-82
2022/12/18 01:11:53;;;;;;;8.73;5.90;;;;;;;;;;5132915;28;20051;-82
2022/12/18 01:14:19;;;;;;;9.75;6.90;;;;;;;;;;5133154;28;20030;-82
2022/12/18 01:16:45;;;;;;;9.52;6.00;;;;;;;;;;5114314;28;20094;-83
2022/12/18 01:19:12;;;;;;;8.80;6.50;;;;;;;;;;5133778;27;20080;-82
2022/12/18 01:21:38;;;;;;;8.60;6.55;;;;;;;;;;5136801;27;20027;-83
2022/12/18 01:24:04;;;;;;;9.27;7.25;;;;;;;;;;5136752;27;20191;-85
2022/12/18 01:26:30;;;;;;;9.35;6.80;;;;;;;;;;5118275;27;20489;-81
2022/12/18 01:28:57;;;;;;;8.30;5.95;;;;;;;;;;5136440;27;20087;-87
2022/12/18 01:31:26;;;;;;;8.50;5.65;;;;;;;;;;5136530;27;20098;-83
2022/12/18 01:33:53;;;;;;;9.18;6.32;;;;;;;;;;5136629;27;20051;-82
2022/12/18 01:36:23;;;;;;;8.68;5.93;;;;;;;;;;5136712;27;20019;-83
2022/12/18 01:38:50;;;;;;;9.30;5.90;;;;;;;;;;5136379;27;20027;-84
2022/12/18 01:41:17;;;;;;;8.40;6.32;;;;;;;;;;5136495;27;20023;-84
2022/12/18 01:43:45;;;;;;;7.72;6.40;;;;;;;;;;5136207;27;20039;-81
2022/12/18 01:46:11;;;;;;;7.50;5.38;;;;;;;;;;5136426;27;20019;-84
2022/12/18 01:48:37;;;;;;;11.30;7.88;;;;;;;;;;5136223;27;20030;-81
2022/12/18 01:51:04;;;;;;;9.05;6.53;;;;;;;;;;5136286;27;20064;-82
2022/12/18 01:53:31;;;;;;;7.72;6.13;;;;;;;;;;5136212;27;20022;-82
2022/12/18 01:55:58;;;;;;;7.72;6.32;;;;;;;;;;5136187;27;20072;-81
2022/12/18 01:58:37;;;;;;;8.25;6.72;;;;;;;;;;5117763;27;20105;-83
2022/12/18 02:01:04;;;;;;;9.05;6.32;;;;;;;;;;5136282;27;20030;-82
2022/12/18 02:03:30;;;;;;;8.90;5.82;;;;;;;;;;5117526;27;20409;-84
2022/12/18 02:06:17;;;;;;;6.38;4.82;;;;;;;;;;5135744;27;20081;-81
2022/12/18 02:08:55;;;;;;;8.75;5.47;;;;;;;;;;5136224;27;20072;-83
2022/12/18 02:11:26;;;;;;;7.88;4.93;;;;;;;;;;5135753;27;20019;-83
2022/12/18 02:13:55;;;;;;;7.60;5.47;;;;;;;;;;5135925;27;20106;-81
2022/12/18 02:16:21;;;;;;;10.27;6.57;;;;;;;;;;5135508;27;20047;-82
2022/12/18 02:18:49;;;;;;;7.25;5.78;;;;;;;;;;5135701;27;20015;-83
2022/12/18 02:21:21;;;;;;;8.23;5.13;;;;;;;;;;5117112;27;20359;-83
2022/12/18 02:24:06;;;;;;;7.03;5.82;;;;;;;;;;5117257;27;20029;-81
2022/12/18 02:26:38;;;;;;;8.02;5.53;;;;;;;;;;5135409;27;20030;-83
2022/12/18 02:29:09;;;;;;;6.05;4.60;;;;;;;;;;5117138;27;20412;-83
2022/12/18 02:31:48;;;;;;;7.05;5.30;;;;;;;;;;5135264;27;20023;-84
2022/12/18 02:34:14;;;;;;;7.78;5.15;;;;;;;;;;5117227;27;20076;-81
2022/12/18 02:36:42;;;;;;;11.25;5.63;;;;;;;;;;5135233;27;20091;-83
2022/12/18 02:39:09;;;;;;;7.70;5.57;;;;;;;;;;5117767;27;20019;-82
2022/12/18 02:41:36;;;;;;;6.10;4.60;;;;;;;;;;5135987;27;20027;-83
2022/12/18 02:44:07;;;;;;;7.10;5.38;;;;;;;;;;5117162;27;20078;-84
2022/12/18 02:46:35;;;;;;;6.68;4.05;;;;;;;;;;5135296;27;20393;-82
2022/12/18 02:49:20;;;;;;;6.68;4.68;;;;;;;;;;5135196;27;20026;-84
2022/12/18 02:51:49;;;;;;;6.22;4.82;;;;;;;;;;5135286;27;20050;-81
2022/12/18 02:54:35;;;;;;;5.70;4.32;;;;;;;;;;5116428;27;20092;-81
2022/12/18 02:57:07;;;;;;;6.38;4.97;;;;;;;;;;5116131;27;20478;-86
2022/12/18 02:59:53;;;;;;;7.57;5.10;;;;;;;;;;5116483;27;20031;-82
2022/12/18 03:02:34;;;;;;;7.25;4.82;;;;;;;;;;5116184;27;20023;-83
2022/12/18 03:05:19;;;;;;;6.63;5.03;;;;;;;;;;5134781;27;20038;-83
2022/12/18 03:07:45;;;;;;;;;;;;;;;;;;5135077;27;20015;-79
2022/12/18 03:10:14;;;;;;;6.68;4.68;;;;;;;;;;5134444;27;20319;-84
2022/12/18 03:12:43;;;;;;;6.55;5.68;;;;;;;;;;5116138;27;20071;-82
2022/12/18 03:15:12;;;;;;;5.82;4.03;;;;;;;;;;5134345;27;20058;-81
2022/12/18 03:17:41;;;;;;;5.70;4.50;;;;;;;;;;5116149;27;20512;-81
2022/12/18 03:20:10;;;;;;;5.72;4.30;;;;;;;;;;5134375;27;20120;-82
2022/12/18 03:22:38;;;;;;;6.45;5.00;;;;;;;;;;5134379;27;20047;-82
2022/12/18 03:25:06;;;;;;;5.47;4.50;;;;;;;;;;5134217;27;20024;-83
2022/12/18 03:27:34;;;;;;;7.30;5.18;;;;;;;;;;5134250;27;20027;-83
2022/12/18 03:30:07;;;;;;;6.70;4.75;;;;;;;;;;5134041;27;20027;-80
2022/12/18 03:32:40;;;;;;;5.63;4.65;;;;;;;;;;5113526;28;20051;-82
2022/12/18 03:35:07;;;;;;;6.00;4.50;;;;;;;;;;5124721;27;20027;-83
2022/12/18 03:37:34;;;;;;;5.25;4.22;;;;;;;;;;5134106;27;20029;-84
2022/12/18 03:40:00;;;;;;;5.32;4.50;;;;;;;;;;5133773;27;20027;-84
2022/12/18 03:42:31;;;;;;;7.53;4.43;;;;;;;;;;5133675;27;20060;-82
2022/12/18 03:45:18;;;;;;;5.53;4.47;;;;;;;;;;5133891;27;20037;-83
2022/12/18 03:48:02;;;;;;;6.50;4.10;;;;;;;;;;5133490;27;20019;-81
2022/12/18 03:50:47;;;;;;;6.90;5.25;;;;;;;;;;5115279;27;20019;-82
2022/12/18 03:53:26;;;;;;;6.28;4.40;;;;;;;;;;5133820;27;20015;-80
2022/12/18 03:55:52;;;;;;;5.97;4.60;;;;;;;;;;5133774;27;20027;-81
2022/12/18 03:58:21;;;;;;;5.85;4.03;;;;;;;;;;5133809;27;20070;-84
2022/12/18 04:00:48;;;;;;;6.68;5.00;;;;;;;;;;5133721;27;20027;-83
2022/12/18 04:03:14;;;;;;;5.72;4.53;;;;;;;;;;5133699;27;20031;-83
2022/12/18 04:05:42;;;;;;;6.28;5.15;;;;;;;;;;5133641;27;20478;-83
2022/12/18 04:08:09;;;;;;;7.72;5.05;;;;;;;;;;5133344;27;20098;-84
2022/12/18 04:10:36;;;;;;;7.50;5.57;;;;;;;;;;5115143;28;20031;-82
2022/12/18 04:13:02;;;;;;;6.25;4.65;;;;;;;;;;5133493;27;20096;-82
2022/12/18 04:15:28;;;;;;;7.75;5.15;;;;;;;;;;5098219;28;20051;-81
2022/12/18 04:17:54;;;;;;;6.55;4.38;;;;;;;;;;5133445;28;20023;-84
2022/12/18 04:20:20;;;;;;;6.35;4.90;;;;;;;;;;5115128;28;20027;-83
2022/12/18 04:22:47;;;;;;;10.02;5.55;;;;;;;;;;5133443;28;20051;-84
2022/12/18 04:25:13;;;;;;;7.38;4.82;;;;;;;;;;5133274;28;20023;-82
2022/12/18 04:27:39;;;;;;;7.50;5.75;;;;;;;;;;5133425;28;20030;-85
2022/12/18 04:30:06;;;;;;;7.35;6.03;;;;;;;;;;5133012;28;20481;-82
2022/12/18 04:32:33;;;;;;;7.85;6.03;;;;;;;;;;5114974;28;20132;-83
2022/12/18 04:34:59;;;;;;;8.77;5.68;;;;;;;;;;5133169;28;20471;-83
2022/12/18 04:37:25;;;;;;;8.40;5.72;;;;;;;;;;5133440;28;20027;-82
2022/12/18 04:39:51;;;;;;;6.28;5.28;;;;;;;;;;5133151;28;20386;-84
2022/12/18 04:42:17;;;;;;;6.25;4.97;;;;;;;;;;5132490;28;20030;-82
2022/12/18 04:44:44;;;;;;;10.88;7.80;;;;;;;;;;5132613;28;20015;-81
2022/12/18 04:47:10;;;;;;;11.55;8.15;;;;;;;;;;5132736;28;20038;-82
2022/12/18 04:49:36;;;;;;;7.60;5.13;;;;;;;;;;5114167;28;20049;-81
2022/12/18 04:52:02;;;;;;;7.93;5.50;;;;;;;;;;5132633;28;20027;-82
2022/12/18 04:54:28;;;;;;;7.38;5.88;;;;;;;;;;5115298;27;20034;-84
2022/12/18 04:56:54;;;;;;;8.02;6.63;;;;;;;;;;5118669;27;20391;-85
2022/12/18 04:59:20;;;;;;;6.55;5.10;;;;;;;;;;5136762;27;20027;-83
2022/12/18 05:01:46;;;;;;;8.68;6.20;;;;;;;;;;5136760;27;20548;-81
2022/12/18 05:04:12;;;;;;;9.68;6.95;;;;;;;;;;5118557;27;20036;-84
2022/12/18 05:06:38;;;;;;;9.38;6.47;;;;;;;;;;5136857;27;20075;-82
2022/12/18 05:09:05;;;;;;;7.32;5.25;;;;;;;;;;5137146;27;20370;-86
2022/12/18 05:11:31;;;;;;;8.57;6.13;;;;;;;;;;5136719;27;20027;-83
2022/12/18 05:13:57;;;;;;;9.70;7.18;;;;;;;;;;5136746;27;20478;-83
2022/12/18 05:16:23;;;;;;;9.82;7.78;;;;;;;;;;5136158;27;20075;-82
2022/12/18 05:18:49;;;;;;;9.18;6.50;;;;;;;;;;5135986;27;20027;-81
2022/12/18 05:21:15;;;;;;;11.38;7.43;;;;;;;;;;5136502;27;20019;-82
2022/12/18 05:23:41;;;;;;;10.93;7.72;;;;;;;;;;5118179;27;20118;-82
2022/12/18 05:26:08;;;;;;;12.68;8.55;;;;;;;;;;5136481;27;20485;-85
2022/12/18 05:28:35;;;;;;;11.00;8.00;;;;;;;;;;5118070;27;20080;-83
2022/12/18 05:31:02;;;;;;;11.02;8.00;;;;;;;;;;5117554;27;20034;-85
2022/12/18 05:33:30;;;;;;;10.75;7.28;;;;;;;;;;5136098;27;20011;-82
2022/12/18 05:35:57;;;;;;;11.98;8.05;;;;;;;;;;5137049;27;20023;-84
2022/12/18 05:38:24;;;;;;;12.27;7.97;;;;;;;;;;5137937;27;20053;-83
2022/12/18 05:40:50;;;;;;;8.48;6.97;;;;;;;;;;5137934;27;20450;-85
2022/12/18 05:43:17;;;;;;;11.40;8.95;;;;;;;;;;5136615;27;20083;-84
2022/12/18 05:45:44;;;;;;;10.30;7.28;;;;;;;;;;5136392;27;20026;-82
2022/12/18 05:48:13;;;;;;;12.40;8.70;;;;;;;;;;5118099;27;20046;-83
2022/12/18 05:50:40;;;;;;;11.23;8.60;;;;;;;;;;5136071;27;20108;-84
2022/12/18 05:53:07;;;;;;;13.85;8.93;;;;;;;;;;5136167;27;20034;-81
2022/12/18 05:55:36;;;;;;;15.13;10.57;;;;;;;;;;5117409;27;20023;-81
2022/12/18 05:58:03;;;;;;;13.48;9.30;;;;;;;;;;5136081;27;20030;-80
2022/12/18 06:00:30;;;;;;;13.80;8.60;;;;;;;;;;5135868;27;20055;-82
2022/12/18 06:02:56;;;;;;;11.88;8.20;;;;;;;;;;5136096;27;20019;-84
2022/12/18 06:05:22;;;;;;;14.20;10.75;;;;;;;;;;5135441;27;20027;-86
2022/12/18 06:07:48;;;;;;;12.23;8.48;;;;;;;;;;5117557;27;20027;-82
2022/12/18 06:10:14;;;;;;;13.10;9.43;;;;;;;;;;5117300;27;20493;-83
2022/12/18 06:12:40;;;;;;;10.50;8.10;;;;;;;;;;5135591;27;20027;-83
2022/12/18 06:15:07;;;;;;;13.68;9.52;;;;;;;;;;5135263;27;20073;-89
2022/12/18 06:17:33;;;;;;;12.77;9.02;;;;;;;;;;5135452;27;20044;-85
2022/12/18 06:19:59;;;;;;;13.00;9.63;;;;;;;;;;5117127;27;20481;-81
2022/12/18 06:22:26;;;;;;;13.48;9.93;;;;;;;;;;5117262;27;20030;-85
2022/12/18 06:24:52;;;;;;;14.60;8.90;;;;;;;;;;5117096;27;20023;-83
2022/12/18 06:27:18;;;;;;;15.52;11.45;;;;;;;;;;5135619;27;20011;-83
2022/12/18 06:29:44;;;;;;;14.00;10.18;;;;;;;;;;5116809;27;20023;-84
2022/12/18 06:32:10;;;;;;;13.85;9.15;;;;;;;;;;5135377;27;20023;-83
2022/12/18 06:34:39;;;;;;;13.15;10.27;;;;;;;;;;5116908;27;20024;-82
2022/12/18 06:37:05;;;;;;;14.65;10.85;;;;;;;;;;5135107;27;20031;-81
2022/12/18 06:39:31;;;;;;;12.98;8.90;;;;;;;;;;5134853;27;20022;-79
2022/12/18 06:41:57;;;;;;;12.75;9.13;;;;;;;;;;5134793;27;20031;-83
2022/12/18 06:44:23;;;;;;;14.63;10.25;;;;;;;;;;5116193;27;20015;-82
2022/12/18 06:46:49;;;;;;;13.13;10.02;;;;;;;;;;5134980;27;20019;-80
2022/12/18 06:49:15;;;;;;;13.32;9.88;;;;;;;;;;5116829;27;20076;-85
2022/12/18 06:51:42;;;;;;;17.10;11.60;;;;;;;;;;5134671;27;20020;-83
2022/12/18 06:54:09;;;;;;;17.20;11.55;;;;;;;;;;5135024;27;20377;-83
2022/12/18 06:56:36;;;;;;;19.50;12.75;;;;;;;;;;5116240;27;20020;-83
2022/12/18 06:59:02;;;;;;;19.02;13.18;;;;;;;;;;5116517;27;20024;-85
2022/12/18 07:01:28;;;;;;;17.13;11.60;;;;;;;;;;5116475;27;20019;-82
2022/12/18 07:03:55;;;;;;;20.13;14.57;;;;;;;;;;5134584;27;20027;-81
2022/12/18 07:06:22;;;;;;;23.70;15.80;;;;;;;;;;5098772;27;20031;-83
2022/12/18 07:08:49;;;;;;;20.95;14.40;;;;;;;;;;5131164;27;20019;-82
2022/12/18 07:11:15;;;;;;;16.00;11.05;;;;;;;;;;5115291;27;20126;-82
2022/12/18 07:13:41;;;;;;;19.60;13.55;;;;;;;;;;5133636;27;20611;-82
2022/12/18 07:16:28;;;;;;;19.38;13.40;;;;;;;;;;5130776;27;20055;-81
2022/12/18 07:18:57;;;;;;;22.92;14.90;;;;;;;;;;5113570;27;20038;-83
2022/12/18 07:21:24;;;;;;;18.27;12.20;;;;;;;;;;5133482;27;20023;-83
2022/12/18 07:23:51;;;;;;;18.48;13.60;;;;;;;;;;5098529;27;20063;-83
2022/12/18 07:26:19;;;;;;;19.35;14.05;;;;;;;;;;5133693;27;20076;-83
2022/12/18 07:28:45;;;;;;;18.08;12.68;;;;;;;;;;5134119;27;20015;-85
2022/12/18 07:31:12;;;;;;;16.55;12.18;;;;;;;;;;5134059;27;20030;-79
2022/12/18 07:33:38;;;;;;;14.80;10.48;;;;;;;;;;5134066;27;20015;-81
2022/12/18 07:36:06;;;;;;;13.85;10.35;;;;;;;;;;5133803;27;20027;-86
2022/12/18 07:38:32;;;;;;;18.88;12.23;;;;;;;;;;5134088;27;20113;-82
2022/12/18 07:41:02;;;;;;;16.73;12.50;;;;;;;;;;5133846;27;20055;-85
2022/12/18 07:43:28;;;;;;;21.27;13.80;;;;;;;;;;5133906;27;20031;-85
2022/12/18 07:45:54;;;;;;;13.90;9.95;;;;;;;;;;5115686;27;20027;-82
2022/12/18 07:48:21;;;;;;;19.83;14.32;;;;;;;;;;5133798;27;20023;-86
2022/12/18 07:50:47;;;;;;;16.65;12.77;;;;;;;;;;5133995;27;20090;-81
2022/12/18 07:53:14;;;;;;;16.45;11.95;;;;;;;;;;5115417;27;20019;-85
2022/12/18 07:55:41;;;;;;;16.33;10.85;;;;;;;;;;5115372;27;20486;-82
2022/12/18 07:58:07;;;;;;;17.20;13.52;;;;;;;;;;5133772;27;20019;-84
2022/12/18 08:00:33;;;;;;;20.10;13.85;;;;;;;;;;5133477;27;20533;-80
2022/12/18 08:03:00;;;;;;;18.02;13.27;;;;;;;;;;5133610;27;20029;-80
2022/12/18 08:05:26;;;;;;;17.10;12.02;;;;;;;;;;5133799;27;20056;-85
2022/12/18 08:07:52;;;;;;;17.40;13.80;;;;;;;;;;5115303;27;20397;-82
2022/12/18 08:10:19;;;;;;;18.77;13.75;;;;;;;;;;5133512;27;20019;-79
2022/12/18 08:12:45;;;;;;;14.23;11.00;;;;;;;;;;5133208;27;20019;-83
2022/12/18 08:15:11;;;;;;;19.48;13.27;;;;;;;;;;5115055;28;20078;-84
2022/12/18 08:17:37;;;;;;;17.88;12.13;;;;;;;;;;5115143;28;20500;-82
2022/12/18 08:20:03;;;;;;;22.48;15.73;;;;;;;;;;5133417;28;20034;-84
2022/12/18 08:22:29;;;;;;;17.67;12.35;;;;;;;;;;5133411;28;20023;-82
2022/12/18 08:24:55;;;;;;;15.80;11.98;;;;;;;;;;5115118;28;20015;-83
2022/12/18 08:27:22;;;;;;;16.00;9.90;;;;;;;;;;5133550;28;20015;-81
2022/12/18 08:29:48;;;;;;;17.17;11.80;;;;;;;;;;5136934;27;20030;-85
2022/12/18 08:32:14;;;;;;;19.15;13.73;;;;;;;;;;5120212;27;20055;-81
2022/12/18 08:34:40;;;;;;;17.02;13.02;;;;;;;;;;5139568;27;20426;-84
2022/12/18 08:37:06;;;;;;;18.75;13.57;;;;;;;;;;5139539;27;20132;-82
2022/12/18 08:39:32;;;;;;;16.98;11.18;;;;;;;;;;5119285;27;20034;-86
2022/12/18 08:44:43;;;;;;;18.88;13.75;;;;;;;;;;5137961;27;20115;-86
2022/12/18 08:47:09;;;;;;;14.82;10.68;;;;;;;;;;5137385;27;20072;-79
2022/12/18 08:49:35;;;;;;;14.80;10.63;;;;;;;;;;5137073;27;20031;-85
2022/12/18 08:52:02;;;;;;;16.92;12.02;;;;;;;;;;5118968;27;20019;-79
2022/12/18 08:54:28;;;;;;;19.45;12.43;;;;;;;;;;5118711;27;20023;-85
2022/12/18 08:56:54;;;;;;;16.98;12.85;;;;;;;;;;5137283;27;20019;-80
2022/12/18 08:59:21;;;;;;;17.83;11.02;;;;;;;;;;5137247;27;20034;-82
2022/12/18 09:01:48;;;;;;;16.38;12.10;;;;;;;;;;5137128;27;20493;-80
2022/12/18 09:04:14;;;;;;;15.38;9.35;;;;;;;;;;5118777;27;20061;-84
2022/12/18 09:06:40;;;;;;;17.38;10.65;;;;;;;;;;5136821;27;20023;-83
2022/12/18 09:09:06;;;;;;;14.68;9.25;;;;;;;;;;5118480;27;20079;-83
2022/12/18 09:11:33;;;;;;;21.27;13.05;;;;;;;;;;5136653;27;20063;-85
2022/12/18 09:14:02;;;;;;;18.17;11.80;;;;;;;;;;5136883;27;20043;-83
2022/12/18 09:16:29;;;;;;;13.98;10.32;;;;;;;;;;5118135;27;20126;-82
2022/12/18 09:18:59;;;;;;;21.67;14.25;;;;;;;;;;5117709;27;20015;-83
2022/12/18 09:21:25;;;;;;;16.65;11.55;;;;;;;;;;5136107;27;20095;-81
2022/12/18 09:23:52;;;;;;;25.65;15.25;;;;;;;;;;5117637;27;20015;-84
2022/12/18 09:26:18;;;;;;;19.65;14.48;;;;;;;;;;5136355;27;20019;-81
2022/12/18 09:28:44;;;;;;;19.98;14.15;;;;;;;;;;5118131;27;20068;-86
2022/12/18 09:31:16;;;;;;;20.70;14.50;;;;;;;;;;5136535;27;20030;-80
2022/12/18 09:33:42;;;;;;;18.63;11.45;;;;;;;;;;5136302;27;20020;-84
2022/12/18 09:36:10;;;;;;;20.40;13.77;;;;;;;;;;5136425;27;20015;-81
2022/12/18 09:38:36;;;;;;;21.50;13.90;;;;;;;;;;5136288;27;20032;-82
2022/12/18 09:41:02;;;;;;;16.88;12.25;;;;;;;;;;5135477;27;20454;-85
2022/12/18 09:43:48;;;;;;;20.90;13.82;;;;;;;;;;5117870;27;20162;-82
2022/12/18 09:46:25;;;;;;;20.05;12.77;;;;;;;;;;5136061;27;20053;-79
2022/12/18 09:48:53;;;;;;;18.20;12.68;;;;;;;;;;5136340;27;20019;-82
2022/12/18 09:51:23;;;;;;;18.75;12.65;;;;;;;;;;5117551;27;20023;-84
2022/12/18 09:53:54;;;;;;;19.27;13.20;;;;;;;;;;5117740;27;20019;-81
2022/12/18 09:56:22;;;;;;;19.60;12.27;;;;;;;;;;5116979;27;20023;-84
2022/12/18 09:58:57;;;;;;;17.88;12.43;;;;;;;;;;5133576;27;20023;-81
2022/12/18 10:01:24;;;;;;;18.50;13.15;;;;;;;;;;5135966;27;20130;-87
2022/12/18 10:03:54;;;;;;;19.02;13.20;;;;;;;;;;5117596;27;20096;-85
2022/12/18 10:06:30;;;;;;;23.27;15.88;;;;;;;;;;5135662;27;20042;-85
2022/12/18 10:09:03;;;;;;;21.77;16.17;;;;;;;;;;5132580;27;20478;-85
2022/12/18 10:11:32;;;;;;;19.50;13.07;;;;;;;;;;5116743;27;20725;-83
2022/12/18 10:13:58;;;;;;;16.02;10.27;;;;;;;;;;5114294;27;20462;-84
2022/12/18 10:16:30;;;;;;;16.85;12.02;;;;;;;;;;5116341;27;20047;-80
2022/12/18 10:19:05;;;;;;;23.42;16.70;;;;;;;;;;5132333;27;20023;-83
2022/12/18 10:21:40;;;;;;;24.35;16.33;;;;;;;;;;5134845;27;20057;-85
2022/12/18 10:24:24;;;;;;;24.70;18.20;;;;;;;;;;5135552;27;20031;-84
2022/12/18 10:26:52;;;;;;;18.42;12.23;;;;;;;;;;5135380;27;20045;-82
2022/12/18 10:29:18;;;;;;;16.13;11.73;;;;;;;;;;5116791;27;20019;-83
2022/12/18 10:31:44;;;;;;;19.35;14.32;;;;;;;;;;5135301;27;20496;-81
2022/12/18 10:34:14;;;;;;;18.35;13.00;;;;;;;;;;5116704;27;20138;-85
2022/12/18 10:36:40;;;;;;;19.17;13.48;;;;;;;;;;5135528;27;20071;-80
2022/12/18 10:39:16;;;;;;;19.52;12.90;;;;;;;;;;5135274;27;20393;-83
2022/12/18 10:41:42;;;;;;;21.98;14.52;;;;;;;;;;5135330;27;20023;-83
2022/12/18 10:44:15;;;;;;;20.15;13.90;;;;;;;;;;5116516;27;20019;-84
2022/12/18 10:46:41;;;;;;;22.70;15.68;;;;;;;;;;5135206;27;20031;-85
2022/12/18 10:49:18;;;;;;;16.23;12.05;;;;;;;;;;5134531;27;20030;-83
2022/12/18 10:51:45;;;;;;;19.02;14.18;;;;;;;;;;5134775;27;20027;-85
2022/12/18 10:54:22;;;;;;;26.75;18.23;;;;;;;;;;5116412;27;20055;-80
2022/12/18 10:56:48;;;;;;;20.02;13.00;;;;;;;;;;5134862;27;20023;-85
2022/12/18 10:59:16;;;;;;;21.95;15.35;;;;;;;;;;5134790;27;20030;-84
2022/12/18 11:02:01;;;;;;;24.88;17.15;;;;;;;;;;5134395;27;20114;-82
2022/12/18 11:04:28;;;;;;;19.90;13.82;;;;;;;;;;5134589;27;20019;-80
2022/12/18 11:07:13;;;;;;;20.92;14.38;;;;;;;;;;5134805;27;20027;-80
2022/12/18 11:09:40;;;;;;;25.05;17.65;;;;;;;;;;5116188;27;20023;-84
2022/12/18 11:12:17;;;;;;;27.02;18.70;;;;;;;;;;5116186;27;20486;-84
2022/12/18 11:14:43;;;;;;;22.40;14.93;;;;;;;;;;5134674;27;20050;-85
2022/12/18 11:17:23;;;;;;;24.25;15.38;;;;;;;;;;5134318;27;20051;-84
2022/12/18 11:19:56;;;;;;;25.60;17.10;;;;;;;;;;5134525;27;20023;-81
2022/12/18 11:22:30;;;;;;;25.23;16.10;;;;;;;;;;5134215;27;20027;-86
2022/12/18 11:25:01;;;;;;;25.17;16.10;;;;;;;;;;5134310;27;20019;-83
2022/12/18 11:27:28;;;;;;;22.13;14.98;;;;;;;;;;5134302;27;20027;-82
2022/12/18 11:30:07;;;;;;;20.55;14.18;;;;;;;;;;5134116;27;20530;-82
2022/12/18 11:32:41;;;;;;;20.75;15.02;;;;;;;;;;5134519;27;20019;-81
2022/12/18 11:35:14;;;;;;;24.00;15.48;;;;;;;;;;5135517;27;20027;-83
2022/12/18 11:37:42;;;;;;;31.75;22.85;;;;;;;;;;5134824;27;20023;-83
2022/12/18 11:40:27;;;;;;;19.08;13.63;;;;;;;;;;5134132;27;20027;-84
2022/12/18 11:43:12;;;;;;;26.08;17.15;;;;;;;;;;5115023;27;20066;-82
2022/12/18 11:45:38;;;;;;;;;;;;;;;;;;5134356;27;20023;-85
2022/12/18 11:48:10;;;;;;;22.40;14.20;;;;;;;;;;5133986;27;20267;-82
2022/12/18 11:50:36;;;;;;;21.63;14.25;;;;;;;;;;5133751;27;20031;-84
2022/12/18 11:53:02;;;;;;;24.38;16.50;;;;;;;;;;5133817;27;20083;-83
2022/12/18 11:55:35;;;;;;;24.63;16.27;;;;;;;;;;5133800;27;20093;-86
2022/12/18 11:58:24;;;;;;;21.80;13.65;;;;;;;;;;5133680;27;20410;-81
2022/12/18 12:00:55;;;;;;;24.33;16.98;;;;;;;;;;5133232;27;20031;-81
2022/12/18 12:03:30;;;;;;;24.20;16.67;;;;;;;;;;5114754;27;20168;-85
2022/12/18 12:06:14;;;;;;;23.15;15.27;;;;;;;;;;5115413;27;20034;-81
2022/12/18 12:08:52;;;;;;;28.05;20.08;;;;;;;;;;5115195;27;20019;-86
2022/12/18 12:11:22;;;;;;;28.08;18.67;;;;;;;;;;5114691;28;20023;-84
2022/12/18 12:13:54;;;;;;;24.05;16.27;;;;;;;;;;5133893;27;20162;-81
2022/12/18 12:16:20;;;;;;;23.83;16.98;;;;;;;;;;5133406;27;20051;-84
2022/12/18 12:18:46;;;;;;;29.08;18.60;;;;;;;;;;5113905;28;20478;-84
2022/12/18 12:21:12;;;;;;;26.25;16.95;;;;;;;;;;5115178;28;20030;-84
2022/12/18 12:23:38;;;;;;;27.90;19.33;;;;;;;;;;5115133;28;20048;-83
2022/12/18 12:26:13;;;;;;;29.17;19.42;;;;;;;;;;5114956;28;20028;-86
2022/12/18 12:28:56;;;;;;;27.63;19.30;;;;;;;;;;5133458;28;20019;-84
2022/12/18 12:31:31;;;;;;;25.60;17.80;;;;;;;;;;5133431;28;20023;-82
2022/12/18 12:34:07;;;;;;;25.73;18.15;;;;;;;;;;5115173;28;20097;-82
2022/12/18 12:36:52;;;;;;;27.60;19.30;;;;;;;;;;5115019;28;20557;-84
2022/12/18 12:39:17;;;;;;;;;;;;;;;;;;5115253;28;20031;-82
2022/12/18 12:44:33;;;;;;;32.75;21.25;;;;;;;;;;5133390;27;20042;-84
2022/12/18 12:47:01;;;;;;;28.70;18.23;;;;;;;;;;5153795;27;20066;-83
2022/12/18 12:49:29;;;;;;;29.02;18.02;;;;;;;;;;5153794;27;20023;-82
2022/12/18 12:52:10;;;;;;;28.25;17.83;;;;;;;;;;5115047;28;20042;-83
2022/12/18 12:54:37;;;;;;;29.50;19.13;;;;;;;;;;5125551;27;20087;-86
2022/12/18 12:57:10;;;;;;;30.83;19.65;;;;;;;;;;5114606;28;20389;-84
2022/12/18 12:59:48;;;;;;;28.30;18.13;;;;;;;;;;5147017;27;20019;-83
2022/12/18 13:02:29;;;;;;;28.23;17.85;;;;;;;;;;5138047;27;20018;-84
2022/12/18 13:05:03;;;;;;;26.30;18.90;;;;;;;;;;5148132;27;20058;-81
2022/12/18 13:07:47;;;;;;;31.05;21.25;;;;;;;;;;5137194;27;20058;-82
2022/12/18 13:10:13;;;;;;;25.30;18.17;;;;;;;;;;5150396;27;20377;-81
2022/12/18 13:15:43;;;;;;;30.25;18.63;;;;;;;;;;5152041;27;20099;-83
2022/12/18 13:18:09;;;;;;;25.33;15.20;;;;;;;;;;5157779;27;20041;-84
2022/12/18 13:20:36;;;;;;;29.55;19.10;;;;;;;;;;5157426;27;20023;-82
2022/12/18 13:23:19;;;;;;;28.27;18.30;;;;;;;;;;5138897;27;20064;-81
2022/12/18 13:25:46;;;;;;;31.77;20.02;;;;;;;;;;5119834;27;20111;-82
2022/12/18 13:28:12;;;;;;;30.08;17.30;;;;;;;;;;5136627;27;20019;-81
2022/12/18 13:30:41;;;;;;;26.98;17.92;;;;;;;;;;5136506;27;20027;-84
2022/12/18 13:33:29;;;;;;;30.70;17.88;;;;;;;;;;5121201;27;20061;-83
2022/12/18 13:36:13;;;;;;;28.50;19.05;;;;;;;;;;5157267;27;20023;-83
2022/12/18 13:38:40;;;;;;;21.98;13.32;;;;;;;;;;5138561;27;20019;-83
2022/12/18 13:41:25;;;;;;;26.92;18.33;;;;;;;;;;5155248;27;20023;-83
2022/12/18 13:43:51;;;;;;;;;;;;;;;;;;5136686;27;20027;-82
2022/12/18 13:46:20;;;;;;;24.70;17.13;;;;;;;;;;5118031;27;19903;-82
2022/12/18 13:48:51;;;;;;;30.85;20.45;;;;;;;;;;5136238;27;20030;-85
2022/12/18 13:51:18;;;;;;;25.42;16.75;;;;;;;;;;5117829;27;20031;-86
2022/12/18 13:53:47;;;;;;;25.85;16.80;;;;;;;;;;5101604;27;20023;-87
2022/12/18 13:56:40;;;;;;;27.50;19.20;;;;;;;;;;5135094;27;20023;-83
2022/12/18 13:59:26;;;;;;;27.20;17.65;;;;;;;;;;5132733;27;20038;-84
2022/12/18 14:01:53;;;;;;;27.38;19.27;;;;;;;;;;5148174;27;20033;-84
2022/12/18 14:04:25;;;;;;;28.92;19.85;;;;;;;;;;5138389;27;20029;-83
2022/12/18 14:06:53;;;;;;;30.20;18.65;;;;;;;;;;5137979;27;20053;-79
2022/12/18 14:09:23;;;;;;;31.65;19.73;;;;;;;;;;5121190;27;20038;-83
2022/12/18 14:11:50;;;;;;;27.13;16.83;;;;;;;;;;5156418;27;20034;-81
2022/12/18 14:14:17;;;;;;;25.98;15.32;;;;;;;;;;5137819;27;20026;-77
2022/12/18 14:16:44;;;;;;;26.10;16.70;;;;;;;;;;5156065;27;20103;-85
2022/12/18 14:19:14;;;;;;;29.10;18.20;;;;;;;;;;5156596;27;20101;-87
2022/12/18 14:21:41;;;;;;;23.95;16.02;;;;;;;;;;5137828;27;20031;-82
2022/12/18 14:24:14;;;;;;;25.25;16.38;;;;;;;;;;5156401;27;20074;-84
2022/12/18 14:26:40;;;;;;;27.08;15.93;;;;;;;;;;5155683;27;20073;-85
2022/12/18 14:29:25;;;;;;;25.90;14.93;;;;;;;;;;5138248;27;20030;-83
2022/12/18 14:31:51;;;;;;;;;;;;;;;;;;5138725;27;20141;-84
2022/12/18 14:34:19;;;;;;;24.13;16.23;;;;;;;;;;5157334;27;19957;-80
2022/12/18 14:36:55;;;;;;;25.30;15.35;;;;;;;;;;5137123;27;20019;-81
2022/12/18 14:39:22;;;;;;;28.17;17.50;;;;;;;;;;5136663;27;20023;-81
2022/12/18 14:41:51;;;;;;;29.40;18.83;;;;;;;;;;5136791;27;20110;-81
2022/12/18 14:44:17;;;;;;;34.75;20.42;;;;;;;;;;5136647;27;20027;-82
2022/12/18 14:46:45;;;;;;;27.80;18.63;;;;;;;;;;5135948;27;20023;-82
2022/12/18 14:49:30;;;;;;;29.05;20.00;;;;;;;;;;5136047;27;20029;-83
2022/12/18 14:52:00;;;;;;;30.00;19.35;;;;;;;;;;5117496;27;20023;-83